EDMA/AGB METAR and TAF weather

Enter ICAO airport designator
Station Type Date Time Source
EDMA METAR 2019/02/20 06:50 UTC NOAA

EDMA 200650Z VRB01KT 9999 OVC031 04/03 Q1023


Station Type Date Time Source
EDMA Decoded METAR 2019/02/20 06:50 UTC NOAA

Augsburg, Germany (EDMA) 48-26N 010-56E 463M
Feb 20, 2019 - 01:50 AM EST / 2019.02.20 0650 UTC
Wind: Variable at 1 MPH (1 KT):0
Visibility: greater than 7 mile(s):0
Sky conditions: overcast
Temperature: 39 F (4 C)
Dew Point: 37 F (3 C)
Relative Humidity: 93%
Pressure (altimeter): 30.21 in. Hg (1023 hPa)
ob: EDMA 200650Z VRB01KT 9999 OVC031 04/03 Q1023
cycle: 7

Station Type Date Time Source
EDMA TAF 2010/02/22 13:50 UTC NOAA

METAR EDMA 221350Z 23006KT CAVOK 10/02 Q0996


Example: see airport list